Time;durP1;ratioP1;P1;durP2;ratioP2;P2;SDS_P1;SDS_P2;PMS_P1;PMS_P2;Temp;Humidity;BMP_temperature;BMP_pressure;BME280_temperature;BME280_humidity;BME280_pressure;Samples;Min_cycle;Max_cycle;Signal;HPM_P1;HPM_P2
2021/09/25 00:02:12;;;;;;;;;;;;;;;;;;5100331;28;19936;-73
2021/09/25 00:04:39;;;;;;;;;;;;;;;;;;5100561;28;19924;-72
2021/09/25 00:07:06;;;;;;;;;;;;;;;;;;5098707;28;19950;-73
2021/09/25 00:09:33;;;;;;;;;;;;;;;;;;5098353;28;19931;-72
2021/09/25 00:12:00;;;;;;;;;;;;;;;;;;5100203;28;19924;-71
2021/09/25 00:14:27;;;;;;;;;;;;;;;;;;5095306;28;20386;-72
2021/09/25 00:16:54;;;;;;;;;;;;;;;;;;5098549;28;19924;-72
2021/09/25 00:19:21;;;;;;;;;;;;;;;;;;5098274;28;19938;-71
2021/09/25 00:21:48;;;;;;;;;;;;;;;;;;5099825;28;19935;-72
2021/09/25 00:24:15;;;;;;;;;;;;;;;;;;5101404;28;20379;-71
2021/09/25 00:26:42;;;;;;;;;;;;;;;;;;5098165;28;20416;-70
2021/09/25 00:29:09;;;;;;;;;;;;;;;;;;5098293;28;19924;-72
2021/09/25 00:31:36;;;;;;;;;;;;;;;;;;5099539;28;19930;-72
2021/09/25 00:34:03;;;;;;;;;;;;;;;;;;5101416;28;19923;-72
2021/09/25 00:36:30;;;;;;;;;;;;;;;;;;5098200;28;19924;-72
2021/09/25 00:38:57;;;;;;;;;;;;;;;;;;5097891;28;20463;-70
2021/09/25 00:41:24;;;;;;;;;;;;;;;;;;5098511;28;19924;-72
2021/09/25 00:43:52;;;;;;;;;;;;;;;;;;5101054;28;19934;-71
2021/09/25 00:46:19;;;;;;;;;;;;;;;;;;5098228;28;19935;-71
2021/09/25 00:48:45;;;;;;;;;;;;;;;;;;5097752;28;20392;-72
2021/09/25 00:51:12;;;;;;;;;;;;;;;;;;5099183;28;19923;-72
2021/09/25 00:53:39;;;;;;;;;;;;;;;;;;5102408;28;19924;-69
2021/09/25 00:56:06;;;;;;;;;;;;;;;;;;5097848;28;20398;-70
2021/09/25 00:58:33;;;;;;;;;;;;;;;;;;5098243;28;19967;-69
2021/09/25 01:01:03;;;;;;;;;;;;;;;;;;5097437;28;20144;-70
2021/09/25 01:03:30;;;;;;;;;;;;;;;;;;5101207;28;19966;-70
2021/09/25 01:05:57;;;;;;;;;;;;;;;;;;5085891;28;20388;-71
2021/09/25 01:08:24;;;;;;;;;;;;;;;;;;5097590;28;20308;-71
2021/09/25 01:10:51;;;;;;;;;;;;;;;;;;5097272;28;19924;-72
2021/09/25 01:13:18;;;;;;;;;;;;;;;;;;5101129;28;19931;-73
2021/09/25 01:15:45;;;;;;;;;;;;;;;;;;5097807;28;19924;-72
2021/09/25 01:18:11;;;;;;;;;;;;;;;;;;5097101;28;19928;-72
2021/09/25 01:20:38;;;;;;;;;;;;;;;;;;5096915;28;20324;-72
2021/09/25 01:23:05;;;;;;;;;;;;;;;;;;5100612;28;19924;-72
2021/09/25 01:25:32;;;;;;;;;;;;;;;;;;5097510;28;19924;-71
2021/09/25 01:27:59;;;;;;;;;;;;;;;;;;5096998;28;19924;-72
2021/09/25 01:30:26;;;;;;;;;;;;;;;;;;5093247;28;19931;-71
2021/09/25 01:32:53;;;;;;;;;;;;;;;;;;5095831;28;20007;-71
2021/09/25 01:35:22;;;;;;;;;;;;;;;;;;5097353;28;20391;-72
2021/09/25 01:37:49;;;;;;;;;;;;;;;;;;5096646;28;19931;-71
2021/09/25 01:40:16;;;;;;;;;;;;;;;;;;5097145;28;19925;-73
2021/09/25 01:42:43;;;;;;;;;;;;;;;;;;5100494;28;19923;-73
2021/09/25 01:45:12;;;;;;;;;;;;;;;;;;5097039;28;19930;-72
2021/09/25 01:47:40;;;;;;;;;;;;;;;;;;5096742;28;20421;-72
2021/09/25 01:50:07;;;;;;;;;;;;;;;;;;5095884;28;19974;-71
2021/09/25 01:52:34;;;;;;;;;;;;;;;;;;5094310;28;20349;-72
2021/09/25 01:55:01;;;;;;;;;;;;;;;;;;5096943;28;19924;-71
2021/09/25 01:57:28;;;;;;;;;;;;;;;;;;5096839;28;20299;-72
2021/09/25 01:59:55;;;;;;;;;;;;;;;;;;5096526;28;19924;-72
2021/09/25 02:02:22;;;;;;;;;;;;;;;;;;5097166;28;19939;-70
2021/09/25 02:04:49;;;;;;;;;;;;;;;;;;5097248;28;19932;-72
2021/09/25 02:07:16;;;;;;;;;;;;;;;;;;5096477;28;20414;-72
2021/09/25 02:09:43;;;;;;;;;;;;;;;;;;5096286;28;19924;-72
2021/09/25 02:12:10;;;;;;;;;;;;;;;;;;5099635;28;19924;-72
2021/09/25 02:14:37;;;;;;;;;;;;;;;;;;5099011;28;19924;-73
2021/09/25 02:17:04;;;;;;;;;;;;;;;;;;5100506;28;19924;-71
2021/09/25 02:19:31;;;;;;;;;;;;;;;;;;5100573;28;19924;-72
2021/09/25 02:21:58;;;;;;;;;;;;;;;;;;5103768;28;19924;-71
2021/09/25 02:24:25;;;;;;;;;;;;;;;;;;5101662;28;20425;-73
2021/09/25 02:26:52;;;;;;;;;;;;;;;;;;5100500;28;19924;-73
2021/09/25 02:29:19;;;;;;;;;;;;;;;;;;5100166;28;19947;-72
2021/09/25 02:31:45;;;;;;;;;;;;;;;;;;5103079;28;19925;-73
2021/09/25 02:34:12;;;;;;;;;;;;;;;;;;5101662;28;19931;-72
2021/09/25 02:36:39;;;;;;;;;;;;;;;;;;5100635;28;20395;-73
2021/09/25 02:39:06;;;;;;;;;;;;;;;;;;5099889;28;19927;-71
2021/09/25 02:41:33;;;;;;;;;;;;;;;;;;5102605;28;19930;-72
2021/09/25 02:44:00;;;;;;;;;;;;;;;;;;5100716;28;19930;-71
2021/09/25 02:46:27;;;;;;;;;;;;;;;;;;5099979;28;19924;-72
2021/09/25 02:48:54;;;;;;;;;;;;;;;;;;5100459;28;19931;-72
2021/09/25 02:51:21;;;;;;;;;;;;;;;;;;5101952;28;19928;-71
2021/09/25 02:53:48;;;;;;;;;;;;;;;;;;5102739;28;19924;-72
2021/09/25 02:56:15;;;;;;;;;;;;;;;;;;5100102;28;20027;-72
2021/09/25 02:58:42;;;;;;;;;;;;;;;;;;5098248;28;20048;-73
2021/09/25 03:01:09;;;;;;;;;;;;;;;;;;5102660;28;20315;-74
2021/09/25 03:03:36;;;;;;;;;;;;;;;;;;5102354;28;19931;-73
2021/09/25 03:06:03;;;;;;;;;;;;;;;;;;5100067;28;19931;-71
2021/09/25 03:08:30;;;;;;;;;;;;;;;;;;5099505;28;19934;-72
2021/09/25 03:10:57;;;;;;;;;;;;;;;;;;5101441;28;19925;-72
2021/09/25 03:13:24;;;;;;;;;;;;;;;;;;5102102;28;20299;-72
2021/09/25 03:15:51;;;;;;;;;;;;;;;;;;5099820;28;19924;-72
2021/09/25 03:18:18;;;;;;;;;;;;;;;;;;5099932;28;19924;-71
2021/09/25 03:20:44;;;;;;;;;;;;;;;;;;5100998;28;19924;-72
2021/09/25 03:23:11;;;;;;;;;;;;;;;;;;5103262;28;19935;-71
2021/09/25 03:25:38;;;;;;;;;;;;;;;;;;5099041;28;19931;-72
2021/09/25 03:28:05;;;;;;;;;;;;;;;;;;5094938;28;19924;-72
2021/09/25 03:30:32;;;;;;;;;;;;;;;;;;5100030;28;19924;-71
2021/09/25 03:32:59;;;;;;;;;;;;;;;;;;5102952;28;19932;-72
2021/09/25 03:35:27;;;;;;;;;;;;;;;;;;5099169;28;20368;-72
2021/09/25 03:37:54;;;;;;;;;;;;;;;;;;5099571;28;19924;-70
2021/09/25 03:40:21;;;;;;;;;;;;;;;;;;5101929;28;19924;-72
2021/09/25 03:42:49;;;;;;;;;;;;;;;;;;5121408;22;19931;-64
2021/09/25 03:45:16;;;;;;;;;;;;;;;;;;5118960;27;20044;-65
2021/09/25 03:47:43;;;;;;;;;;;;;;;;;;5118845;27;19932;-66
2021/09/25 03:50:10;;;;;;;;;;;;;;;;;;5118935;27;19924;-66
2021/09/25 03:52:37;;;;;;;;;;;;;;;;;;5117354;27;20420;-66
2021/09/25 03:55:04;;;;;;;;;;;;;;;;;;5086620;28;20006;-66
2021/09/25 03:57:31;;;;;;;;;;;;;;;;;;5098691;28;19924;-66
2021/09/25 03:59:58;;;;;;;;;;;;;;;;;;5092405;28;20392;-66
2021/09/25 04:02:25;;;;;;;;;;;;;;;;;;5099683;28;19923;-66
2021/09/25 04:04:52;;;;;;;;;;;;;;;;;;5098142;28;19924;-66
2021/09/25 04:07:19;;;;;;;;;;;;;;;;;;5098388;28;19977;-65
2021/09/25 04:09:46;;;;;;;;;;;;;;;;;;5097795;28;20307;-66
2021/09/25 04:12:13;;;;;;;;;;;;;;;;;;5095716;28;19924;-65
2021/09/25 04:14:40;;;;;;;;;;;;;;;;;;5098129;28;19990;-66
2021/09/25 04:17:07;;;;;;;;;;;;;;;;;;5098249;28;20176;-66
2021/09/25 04:19:33;;;;;;;;;;;;;;;;;;5097793;28;19924;-66
2021/09/25 04:22:00;;;;;;;;;;;;;;;;;;5101454;28;19924;-64
2021/09/25 04:24:27;;;;;;;;;;;;;;;;;;5098402;28;19928;-66
2021/09/25 04:26:54;;;;;;;;;;;;;;;;;;5097825;28;19931;-65
2021/09/25 04:29:21;;;;;;;;;;;;;;;;;;5097905;28;20398;-65
2021/09/25 04:31:48;;;;;;;;;;;;;;;;;;5101131;28;19928;-66
2021/09/25 04:34:16;;;;;;;;;;;;;;;;;;5098486;28;19928;-67
2021/09/25 04:36:43;;;;;;;;;;;;;;;;;;5097138;28;19931;-67
2021/09/25 04:39:10;;;;;;;;;;;;;;;;;;5097765;28;20303;-66
2021/09/25 04:41:37;;;;;;;;;;;;;;;;;;5100967;28;19923;-66
2021/09/25 04:44:04;;;;;;;;;;;;;;;;;;5098219;28;19930;-66
2021/09/25 04:46:31;;;;;;;;;;;;;;;;;;5097367;28;19931;-66
2021/09/25 04:48:58;;;;;;;;;;;;;;;;;;5096986;28;19928;-67
2021/09/25 04:51:25;;;;;;;;;;;;;;;;;;5096443;28;20304;-66
2021/09/25 04:53:52;;;;;;;;;;;;;;;;;;5096972;28;20404;-66
2021/09/25 04:56:19;;;;;;;;;;;;;;;;;;5096987;28;19931;-66
2021/09/25 04:58:45;;;;;;;;;;;;;;;;;;5097166;28;19924;-66
2021/09/25 05:01:13;;;;;;;;;;;;;;;;;;5099299;28;20343;-66
2021/09/25 05:03:40;;;;;;;;;;;;;;;;;;5098269;28;19924;-65
2021/09/25 05:06:07;;;;;;;;;;;;;;;;;;5096780;28;19931;-67
2021/09/25 05:08:34;;;;;;;;;;;;;;;;;;5097122;28;19959;-67
2021/09/25 05:11:01;;;;;;;;;;;;;;;;;;5099145;28;20291;-66
2021/09/25 05:13:28;;;;;;;;;;;;;;;;;;5093765;28;19928;-66
2021/09/25 05:15:55;;;;;;;;;;;;;;;;;;5096808;28;19932;-64
2021/09/25 05:18:22;;;;;;;;;;;;;;;;;;5096690;28;20388;-69
2021/09/25 05:20:49;;;;;;;;;;;;;;;;;;5098688;28;19924;-64
2021/09/25 05:23:17;;;;;;;;;;;;;;;;;;5098971;28;19974;-65
2021/09/25 05:25:48;;;;;;;;;;;;;;;;;;5097014;28;19937;-67
2021/09/25 05:28:15;;;;;;;;;;;;;;;;;;5096493;28;19931;-66
2021/09/25 05:30:42;;;;;;;;;;;;;;;;;;5098663;28;19925;-66
2021/09/25 05:33:09;;;;;;;;;;;;;;;;;;5097639;28;20419;-67
2021/09/25 05:35:36;;;;;;;;;;;;;;;;;;5096645;28;20017;-66
2021/09/25 05:38:04;;;;;;;;;;;;;;;;;;5096748;28;19924;-65
2021/09/25 05:40:31;;;;;;;;;;;;;;;;;;5098780;28;19946;-66
2021/09/25 05:42:58;;;;;;;;;;;;;;;;;;5098332;28;19924;-67
2021/09/25 05:45:25;;;;;;;;;;;;;;;;;;5096247;28;19924;-67
2021/09/25 05:47:52;;;;;;;;;;;;;;;;;;5096337;28;19982;-66
2021/09/25 05:50:19;;;;;;;;;;;;;;;;;;5097569;28;19932;-64
2021/09/25 05:52:46;;;;;;;;;;;;;;;;;;5098584;28;19931;-65
2021/09/25 05:55:13;;;;;;;;;;;;;;;;;;5095822;28;19924;-67
2021/09/25 05:57:43;;;;;;;;;;;;;;;;;;5096069;28;19928;-68
2021/09/25 06:00:11;;;;;;;;;;;;;;;;;;5097291;28;20295;-67
2021/09/25 06:02:39;;;;;;;;;;;;;;;;;;5096158;28;19934;-66
2021/09/25 06:05:06;;;;;;;;;;;;;;;;;;5095980;28;19932;-66
2021/09/25 06:07:33;;;;;;;;;;;;;;;;;;5096248;28;20177;-67
2021/09/25 06:10:00;;;;;;;;;;;;;;;;;;5098221;28;19924;-64
2021/09/25 06:12:27;;;;;;;;;;;;;;;;;;5098401;28;20284;-66
2021/09/25 06:14:54;;;;;;;;;;;;;;;;;;5096473;28;19924;-64
2021/09/25 06:17:21;;;;;;;;;;;;;;;;;;5096208;28;19934;-65
2021/09/25 06:19:48;;;;;;;;;;;;;;;;;;5097826;28;19928;-65
2021/09/25 06:22:15;;;;;;;;;;;;;;;;;;5098465;28;20372;-65
2021/09/25 06:24:42;;;;;;;;;;;;;;;;;;5096175;28;19924;-66
2021/09/25 06:27:09;;;;;;;;;;;;;;;;;;5096230;28;19924;-66
2021/09/25 06:29:36;;;;;;;;;;;;;;;;;;5093763;28;20275;-67
2021/09/25 06:32:02;;;;;;;;;;;;;;;;;;5098460;28;19924;-64
2021/09/25 06:34:29;;;;;;;;;;;;;;;;;;5095834;28;20403;-65
2021/09/25 06:36:56;;;;;;;;;;;;;;;;;;5095996;28;19925;-65
2021/09/25 06:39:23;;;;;;;;;;;;;;;;;;5096559;28;19936;-65
2021/09/25 06:41:50;;;;;;;;;;;;;;;;;;5098685;28;19930;-66
2021/09/25 06:44:17;;;;;;;;;;;;;;;;;;5095664;28;19924;-66
2021/09/25 06:46:44;;;;;;;;;;;;;;;;;;5095904;28;19935;-66
2021/09/25 06:49:11;;;;;;;;;;;;;;;;;;5096575;28;20359;-65
2021/09/25 06:51:38;;;;;;;;;;;;;;;;;;5099311;28;19943;-66
2021/09/25 06:54:05;;;;;;;;;;;;;;;;;;5095488;28;19930;-64
2021/09/25 06:56:32;;;;;;;;;;;;;;;;;;5095404;28;19924;-66
2021/09/25 06:58:59;;;;;;;;;;;;;;;;;;5096400;28;19924;-66
2021/09/25 07:01:26;;;;;;;;;;;;;;;;;;5101514;28;19924;-63
2021/09/25 07:03:53;;;;;;;;;;;;;;;;;;5087749;28;19977;-66
2021/09/25 07:06:20;;;;;;;;;;;;;;;;;;5099131;28;19924;-64
2021/09/25 07:08:47;;;;;;;;;;;;;;;;;;5099283;28;19928;-67
2021/09/25 07:11:14;;;;;;;;;;;;;;;;;;5103009;28;20372;-65
2021/09/25 07:13:42;;;;;;;;;;;;;;;;;;5098910;28;20023;-67
2021/09/25 07:16:09;;;;;;;;;;;;;;;;;;5099073;28;19928;-68
2021/09/25 07:18:37;;;;;;;;;;;;;;;;;;5099150;28;19928;-68
2021/09/25 07:21:04;;;;;;;;;;;;;;;;;;5102772;28;20314;-66
2021/09/25 07:23:31;;;;;;;;;;;;;;;;;;5086962;28;19931;-67
2021/09/25 07:25:58;;;;;;;;;;;;;;;;;;5099050;28;20113;-66
2021/09/25 07:28:25;;;;;;;;;;;;;;;;;;5099211;28;20298;-68
2021/09/25 07:30:52;;;;;;;;;;;;;;;;;;5102158;28;19924;-66
2021/09/25 07:33:19;;;;;;;;;;;;;;;;;;5098573;28;19935;-67
2021/09/25 07:35:46;;;;;;;;;;;;;;;;;;5098381;28;20398;-65
2021/09/25 07:38:13;;;;;;;;;;;;;;;;;;5099242;28;19924;-67
2021/09/25 07:40:40;;;;;;;;;;;;;;;;;;5095933;28;20007;-67
2021/09/25 07:43:10;;;;;;;;;;;;;;;;;;5095608;28;19930;-67
2021/09/25 07:45:37;;;;;;;;;;;;;;;;;;5090694;28;19930;-67
2021/09/25 07:48:04;;;;;;;;;;;;;;;;;;5098149;28;19924;-67
2021/09/25 07:50:31;;;;;;;;;;;;;;;;;;5101855;28;19930;-66
2021/09/25 07:52:58;;;;;;;;;;;;;;;;;;5098297;28;19931;-67
2021/09/25 07:55:25;;;;;;;;;;;;;;;;;;5098216;28;20023;-65
2021/09/25 07:57:52;;;;;;;;;;;;;;;;;;5098069;28;19967;-65
2021/09/25 08:00:19;;;;;;;;;;;;;;;;;;5100511;28;19934;-64
2021/09/25 08:02:46;;;;;;;;;;;;;;;;;;5098326;28;19924;-65
2021/09/25 08:05:13;;;;;;;;;;;;;;;;;;5098066;28;19939;-63
2021/09/25 08:07:40;;;;;;;;;;;;;;;;;;5098203;28;20034;-65
2021/09/25 08:10:07;;;;;;;;;;;;;;;;;;5101234;28;19945;-65
2021/09/25 08:12:34;;;;;;;;;;;;;;;;;;5097880;28;19928;-66
2021/09/25 08:15:01;;;;;;;;;;;;;;;;;;5097563;28;19931;-66
2021/09/25 08:17:28;;;;;;;;;;;;;;;;;;5097828;28;20019;-65
2021/09/25 08:19:55;;;;;;;;;;;;;;;;;;5100654;28;19924;-64
2021/09/25 08:22:22;;;;;;;;;;;;;;;;;;5098783;28;19963;-65
2021/09/25 08:24:49;;;;;;;;;;;;;;;;;;5097470;28;19928;-65
2021/09/25 08:27:16;;;;;;;;;;;;;;;;;;5097494;28;19924;-64
2021/09/25 08:29:43;;;;;;;;;;;;;;;;;;5100178;28;19928;-66
2021/09/25 08:32:10;;;;;;;;;;;;;;;;;;5098540;28;19959;-65
2021/09/25 08:34:37;;;;;;;;;;;;;;;;;;5097571;28;19930;-66
2021/09/25 08:37:05;;;;;;;;;;;;;;;;;;5097724;28;20428;-65
2021/09/25 08:39:32;;;;;;;;;;;;;;;;;;5099976;28;20299;-65
2021/09/25 08:41:59;;;;;;;;;;;;;;;;;;5098661;28;19934;-66
2021/09/25 08:44:26;;;;;;;;;;;;;;;;;;5096811;28;19930;-64
2021/09/25 08:46:53;;;;;;;;;;;;;;;;;;5097405;28;20304;-66
2021/09/25 08:49:20;;;;;;;;;;;;;;;;;;5099355;28;19932;-66
2021/09/25 08:51:47;;;;;;;;;;;;;;;;;;5098626;28;19930;-66
2021/09/25 08:54:14;;;;;;;;;;;;;;;;;;5096902;28;20311;-66
2021/09/25 08:56:41;;;;;;;;;;;;;;;;;;5096996;28;19930;-66
2021/09/25 08:59:08;;;;;;;;;;;;;;;;;;5090111;28;19931;-65
2021/09/25 09:01:35;;;;;;;;;;;;;;;;;;5098861;28;19927;-65
2021/09/25 09:04:03;;;;;;;;;;;;;;;;;;5096982;28;19994;-67
2021/09/25 09:06:30;;;;;;;;;;;;;;;;;;5097086;28;19927;-66
2021/09/25 09:08:57;;;;;;;;;;;;;;;;;;5096097;28;20312;-63
2021/09/25 09:11:24;;;;;;;;;;;;;;;;;;5098593;28;19924;-66
2021/09/25 09:13:51;;;;;;;;;;;;;;;;;;5096390;28;20368;-66
2021/09/25 09:16:18;;;;;;;;;;;;;;;;;;5096970;28;20018;-66
2021/09/25 09:18:45;;;;;;;;;;;;;;;;;;5098433;28;19930;-66
2021/09/25 09:21:12;;;;;;;;;;;;;;;;;;5099152;28;20286;-66
2021/09/25 09:23:39;;;;;;;;;;;;;;;;;;5096384;28;19928;-65
2021/09/25 09:26:06;;;;;;;;;;;;;;;;;;5096524;28;19928;-65
2021/09/25 09:28:33;;;;;;;;;;;;;;;;;;5097447;28;20419;-66
2021/09/25 09:31:00;;;;;;;;;;;;;;;;;;5098856;28;19934;-64
2021/09/25 09:33:27;;;;;;;;;;;;;;;;;;5096498;28;19946;-66
2021/09/25 09:35:54;;;;;;;;;;;;;;;;;;5096238;28;20403;-66
2021/09/25 09:38:20;;;;;;;;;;;;;;;;;;5097448;28;20410;-66
2021/09/25 09:40:47;;;;;;;;;;;;;;;;;;5098941;28;19930;-67
2021/09/25 09:43:14;;;;;;;;;;;;;;;;;;5105857;22;19925;-71
2021/09/25 09:45:41;;;;;;;;;;;;;;;;;;5087199;28;19924;-70
2021/09/25 09:48:08;;;;;;;;;;;;;;;;;;5085740;28;20311;-67
2021/09/25 09:50:35;;;;;;;;;;;;;;;;;;5099059;28;20412;-67
2021/09/25 09:53:02;;;;;;;;;;;;;;;;;;5085189;28;19924;-67
2021/09/25 09:55:29;;;;;;;;;;;;;;;;;;5096155;28;19935;-67
2021/09/25 09:57:56;;;;;;;;;;;;;;;;;;5097051;28;19924;-67
2021/09/25 10:00:23;;;;;;;;;;;;;;;;;;5097903;28;19935;-67
2021/09/25 10:02:50;;;;;;;;;;;;;;;;;;5084689;28;19946;-67
2021/09/25 10:05:17;;;;;;;;;;;;;;;;;;5096275;28;19924;-70
2021/09/25 10:07:43;;;;;;;;;;;;;;;;;;5096700;28;19924;-67
2021/09/25 10:10:10;;;;;;;;;;;;;;;;;;5099509;28;20383;-67
2021/09/25 10:12:37;;;;;;;;;;;;;;;;;;5095845;28;20453;-67
2021/09/25 10:15:05;;;;;;;;;;;;;;;;;;5089881;28;19931;-66
2021/09/25 10:17:32;;;;;;;;;;;;;;;;;;5096103;28;20391;-66
2021/09/25 10:19:59;;;;;;;;;;;;;;;;;;5099702;28;19923;-70
2021/09/25 10:22:26;;;;;;;;;;;;;;;;;;5095810;28;20006;-70
2021/09/25 10:24:53;;;;;;;;;;;;;;;;;;5093265;28;20106;-67
2021/09/25 10:27:20;;;;;;;;;;;;;;;;;;5096270;28;19946;-67
2021/09/25 10:29:47;;;;;;;;;;;;;;;;;;5098907;28;19923;-69
2021/09/25 10:32:14;;;;;;;;;;;;;;;;;;5091604;28;19924;-68
2021/09/25 10:34:40;;;;;;;;;;;;;;;;;;5095423;28;19924;-67
2021/09/25 10:37:08;;;;;;;;;;;;;;;;;;5099568;28;20461;-69
2021/09/25 10:39:36;;;;;;;;;;;;;;;;;;5102626;28;19970;-67
2021/09/25 10:42:03;;;;;;;;;;;;;;;;;;5100155;28;19967;-67
2021/09/25 10:44:30;;;;;;;;;;;;;;;;;;5099660;28;19931;-67
2021/09/25 10:46:57;;;;;;;;;;;;;;;;;;5099497;28;19924;-67
2021/09/25 10:49:24;;;;;;;;;;;;;;;;;;5102875;28;19930;-68
2021/09/25 10:51:51;;;;;;;;;;;;;;;;;;5100263;28;19934;-66
2021/09/25 10:54:18;;;;;;;;;;;;;;;;;;5099869;28;19963;-68
2021/09/25 10:56:45;;;;;;;;;;;;;;;;;;5099690;28;19924;-66
2021/09/25 10:59:12;;;;;;;;;;;;;;;;;;5102343;28;20310;-66
2021/09/25 11:01:39;;;;;;;;;;;;;;;;;;5100507;28;19924;-67
2021/09/25 11:04:06;;;;;;;;;;;;;;;;;;5099735;28;19924;-67
2021/09/25 11:06:33;;;;;;;;;;;;;;;;;;5099744;28;19924;-67
2021/09/25 11:09:00;;;;;;;;;;;;;;;;;;5101868;28;19927;-69
2021/09/25 11:11:27;;;;;;;;;;;;;;;;;;5100672;28;19930;-66
2021/09/25 11:13:54;;;;;;;;;;;;;;;;;;5099285;28;20435;-66
2021/09/25 11:16:21;;;;;;;;;;;;;;;;;;5099506;28;19932;-66
2021/09/25 11:18:48;;;;;;;;;;;;;;;;;;5101343;28;19928;-67
2021/09/25 11:21:15;;;;;;;;;;;;;;;;;;5100447;28;19976;-69
2021/09/25 11:23:42;;;;;;;;;;;;;;;;;;5098921;28;19924;-66
2021/09/25 11:26:09;;;;;;;;;;;;;;;;;;5098856;28;19930;-68
2021/09/25 11:28:36;;;;;;;;;;;;;;;;;;5096690;28;19924;-67
2021/09/25 11:31:03;;;;;;;;;;;;;;;;;;5100729;28;20018;-66
2021/09/25 11:33:29;;;;;;;;;;;;;;;;;;5099238;28;19931;-70
2021/09/25 11:35:56;;;;;;;;;;;;;;;;;;5098734;28;19924;-67
2021/09/25 11:38:23;;;;;;;;;;;;;;;;;;5100634;28;20286;-67
2021/09/25 11:40:50;;;;;;;;;;;;;;;;;;5100792;28;19931;-69
2021/09/25 11:43:17;;;;;;;;;;;;;;;;;;5098606;28;19924;-70
2021/09/25 11:45:44;;;;;;;;;;;;;;;;;;5098523;28;20291;-67
2021/09/25 11:48:11;;;;;;;;;;;;;;;;;;5098614;28;19924;-66
2021/09/25 11:50:38;;;;;;;;;;;;;;;;;;5100928;28;19928;-67
2021/09/25 11:53:05;;;;;;;;;;;;;;;;;;5095758;28;19928;-67
2021/09/25 11:55:32;;;;;;;;;;;;;;;;;;5098473;28;19971;-68
2021/09/25 11:57:59;;;;;;;;;;;;;;;;;;5099205;28;19924;-66
2021/09/25 12:00:26;;;;;;;;;;;;;;;;;;5099289;28;19924;-69
2021/09/25 12:02:53;;;;;;;;;;;;;;;;;;5098340;28;19930;-67
2021/09/25 12:05:19;;;;;;;;;;;;;;;;;;5098126;28;19924;-65
2021/09/25 12:07:46;;;;;;;;;;;;;;;;;;5099141;28;19924;-66
2021/09/25 12:10:13;;;;;;;;;;;;;;;;;;5100828;28;19930;-66
2021/09/25 12:12:40;;;;;;;;;;;;;;;;;;5097979;28;19924;-67
2021/09/25 12:15:08;;;;;;;;;;;;;;;;;;5097528;28;19930;-66
2021/09/25 12:17:35;;;;;;;;;;;;;;;;;;5098828;28;19924;-65
2021/09/25 12:20:02;;;;;;;;;;;;;;;;;;5101059;28;19930;-67
2021/09/25 12:22:31;;;;;;;;;;;;;;;;;;5097772;28;19930;-67
2021/09/25 12:24:58;;;;;;;;;;;;;;;;;;5097851;28;19928;-66
2021/09/25 12:27:25;;;;;;;;;;;;;;;;;;5098293;28;19947;-66
2021/09/25 12:29:52;;;;;;;;;;;;;;;;;;5100933;28;20310;-66
2021/09/25 12:32:19;;;;;;;;;;;;;;;;;;5097279;28;19928;-69
2021/09/25 12:34:46;;;;;;;;;;;;;;;;;;5097494;28;19930;-65
2021/09/25 12:37:13;;;;;;;;;;;;;;;;;;5097893;28;19931;-68
2021/09/25 12:39:44;;;;;;;;;;;;;;;;;;5100839;28;19924;-65
2021/09/25 12:42:13;;;;;;;;;;;;;;;;;;5085702;28;19924;-66
2021/09/25 12:44:41;;;;;;;;;;;;;;;;;;5092127;28;19924;-65
2021/09/25 12:47:09;;;;;;;;;;;;;;;;;;5098384;28;19928;-66
2021/09/25 12:49:36;;;;;;;;;;;;;;;;;;5099795;28;19992;-66
2021/09/25 12:52:03;;;;;;;;;;;;;;;;;;5096889;28;19924;-65
2021/09/25 12:54:30;;;;;;;;;;;;;;;;;;5096782;28;19924;-65
2021/09/25 12:56:57;;;;;;;;;;;;;;;;;;5097716;28;19959;-66
2021/09/25 12:59:25;;;;;;;;;;;;;;;;;;5099661;28;19939;-65
2021/09/25 13:01:53;;;;;;;;;;;;;;;;;;5097204;28;20042;-66
2021/09/25 13:04:20;;;;;;;;;;;;;;;;;;5096584;28;19925;-66
2021/09/25 13:06:47;;;;;;;;;;;;;;;;;;5098452;28;19925;-66
2021/09/25 13:09:14;;;;;;;;;;;;;;;;;;5099697;28;20391;-67
2021/09/25 13:11:41;;;;;;;;;;;;;;;;;;5096961;28;20300;-66
2021/09/25 13:14:08;;;;;;;;;;;;;;;;;;5097087;28;20019;-70
2021/09/25 13:16:35;;;;;;;;;;;;;;;;;;5097315;28;19924;-66
2021/09/25 13:19:02;;;;;;;;;;;;;;;;;;5100570;28;19930;-70
2021/09/25 13:21:29;;;;;;;;;;;;;;;;;;5096691;28;20015;-66
2021/09/25 13:23:56;;;;;;;;;;;;;;;;;;5096893;28;20276;-65
2021/09/25 13:26:23;;;;;;;;;;;;;;;;;;5096978;28;19924;-69
2021/09/25 13:28:50;;;;;;;;;;;;;;;;;;5100251;28;19930;-67
2021/09/25 13:31:17;;;;;;;;;;;;;;;;;;5096237;28;20091;-67
2021/09/25 13:33:44;;;;;;;;;;;;;;;;;;5096494;28;19924;-66
2021/09/25 13:36:11;;;;;;;;;;;;;;;;;;5096507;28;20015;-68
2021/09/25 13:38:37;;;;;;;;;;;;;;;;;;5099943;28;19927;-68
2021/09/25 13:41:05;;;;;;;;;;;;;;;;;;5096461;28;19935;-71
2021/09/25 13:43:32;;;;;;;;;;;;;;;;;;5096449;28;20011;-67
2021/09/25 13:45:59;;;;;;;;;;;;;;;;;;5096617;28;20380;-69
2021/09/25 13:48:26;;;;;;;;;;;;;;;;;;5095531;28;20018;-66
2021/09/25 13:50:52;;;;;;;;;;;;;;;;;;5095985;28;20299;-65
2021/09/25 13:53:19;;;;;;;;;;;;;;;;;;5096345;28;19930;-67
2021/09/25 13:55:46;;;;;;;;;;;;;;;;;;5096345;28;19924;-66
2021/09/25 13:58:13;;;;;;;;;;;;;;;;;;5097793;28;19930;-66
2021/09/25 14:00:40;;;;;;;;;;;;;;;;;;5094625;28;19935;-66
2021/09/25 14:03:07;;;;;;;;;;;;;;;;;;5096212;28;19934;-66
2021/09/25 14:05:34;;;;;;;;;;;;;;;;;;5096019;28;20018;-66
2021/09/25 14:08:06;;;;;;;;;;;;;;;;;;5096484;28;20006;-67
2021/09/25 14:10:33;;;;;;;;;;;;;;;;;;5095236;28;19931;-66
2021/09/25 14:13:00;;;;;;;;;;;;;;;;;;5096192;28;20410;-66
2021/09/25 14:15:27;;;;;;;;;;;;;;;;;;5096217;28;19948;-70
2021/09/25 14:17:54;;;;;;;;;;;;;;;;;;5099610;28;19924;-65
2021/09/25 14:20:21;;;;;;;;;;;;;;;;;;5093926;28;19938;-66
2021/09/25 14:22:48;;;;;;;;;;;;;;;;;;5098435;28;19924;-66
2021/09/25 14:25:15;;;;;;;;;;;;;;;;;;5097989;28;19924;-66
2021/09/25 14:27:42;;;;;;;;;;;;;;;;;;5099642;28;19931;-67
2021/09/25 14:30:09;;;;;;;;;;;;;;;;;;5096785;28;20007;-65
2021/09/25 14:32:36;;;;;;;;;;;;;;;;;;5096109;28;19924;-71
2021/09/25 14:35:03;;;;;;;;;;;;;;;;;;5097444;28;19931;-66
2021/09/25 14:37:30;;;;;;;;;;;;;;;;;;5100263;28;19931;-70
2021/09/25 14:39:57;;;;;;;;;;;;;;;;;;5097222;28;20023;-66
2021/09/25 14:42:24;;;;;;;;;;;;;;;;;;5096131;28;19945;-66
2021/09/25 14:44:51;;;;;;;;;;;;;;;;;;5095605;28;20018;-67
2021/09/25 14:47:18;;;;;;;;;;;;;;;;;;5098376;28;19932;-70
2021/09/25 14:49:45;;;;;;;;;;;;;;;;;;5097077;28;19924;-67
2021/09/25 14:52:12;;;;;;;;;;;;;;;;;;5096005;28;20522;-67
2021/09/25 14:54:39;;;;;;;;;;;;;;;;;;5095907;28;19924;-67
2021/09/25 14:57:06;;;;;;;;;;;;;;;;;;5098148;28;20351;-66
2021/09/25 14:59:33;;;;;;;;;;;;;;;;;;5096816;28;19930;-66
2021/09/25 15:02:00;;;;;;;;;;;;;;;;;;5095706;28;19931;-65
2021/09/25 15:04:27;;;;;;;;;;;;;;;;;;5095558;28;19931;-68
2021/09/25 15:06:55;;;;;;;;;;;;;;;;;;5093052;28;19924;-66
2021/09/25 15:09:22;;;;;;;;;;;;;;;;;;5097279;28;20299;-66
2021/09/25 15:11:49;;;;;;;;;;;;;;;;;;5095992;28;19984;-66
2021/09/25 15:14:16;;;;;;;;;;;;;;;;;;5091632;28;19930;-67
2021/09/25 15:16:42;;;;;;;;;;;;;;;;;;5097977;28;19956;-70
2021/09/25 15:19:09;;;;;;;;;;;;;;;;;;5097450;28;19931;-67
2021/09/25 15:21:36;;;;;;;;;;;;;;;;;;5097042;28;20356;-66
2021/09/25 15:24:03;;;;;;;;;;;;;;;;;;5099052;28;20010;-67
2021/09/25 15:26:31;;;;;;;;;;;;;;;;;;5101204;28;20275;-66
2021/09/25 15:28:58;;;;;;;;;;;;;;;;;;5101346;28;20322;-66
2021/09/25 15:31:25;;;;;;;;;;;;;;;;;;5098735;28;19933;-67
2021/09/25 15:33:52;;;;;;;;;;;;;;;;;;5098836;28;20059;-67
2021/09/25 15:36:19;;;;;;;;;;;;;;;;;;5100183;28;20263;-66
2021/09/25 15:38:46;;;;;;;;;;;;;;;;;;5101746;28;19971;-67
2021/09/25 15:41:13;;;;;;;;;;;;;;;;;;5098317;28;19990;-67
2021/09/25 15:43:40;;;;;;;;;;;;;;;;;;5099305;28;19924;-67
2021/09/25 15:46:07;;;;;;;;;;;;;;;;;;5099724;28;19924;-67
2021/09/25 15:48:34;;;;;;;;;;;;;;;;;;5101688;28;19923;-67
2021/09/25 15:51:01;;;;;;;;;;;;;;;;;;5098450;28;20280;-68
2021/09/25 15:53:29;;;;;;;;;;;;;;;;;;5098295;28;19934;-67
2021/09/25 15:55:56;;;;;;;;;;;;;;;;;;5098996;28;19931;-67
2021/09/25 15:58:22;;;;;;;;;;;;;;;;;;5101544;28;19924;-67
2021/09/25 16:00:49;;;;;;;;;;;;;;;;;;5097096;28;19943;-67
2021/09/25 16:03:17;;;;;;;;;;;;;;;;;;5098093;28;19946;-68
2021/09/25 16:05:44;;;;;;;;;;;;;;;;;;5098801;28;19968;-68
2021/09/25 16:08:11;;;;;;;;;;;;;;;;;;5101710;28;19927;-68
2021/09/25 16:10:38;;;;;;;;;;;;;;;;;;5097793;28;19924;-65
2021/09/25 16:13:05;;;;;;;;;;;;;;;;;;5098254;28;19928;-66
2021/09/25 16:15:32;;;;;;;;;;;;;;;;;;5098584;28;19924;-66
2021/09/25 16:17:59;;;;;;;;;;;;;;;;;;5101525;28;20010;-66
2021/09/25 16:20:26;;;;;;;;;;;;;;;;;;5085746;28;19924;-67
2021/09/25 16:22:53;;;;;;;;;;;;;;;;;;5097672;28;19931;-67
2021/09/25 16:25:20;;;;;;;;;;;;;;;;;;5097637;28;19933;-67
2021/09/25 16:27:47;;;;;;;;;;;;;;;;;;5096855;28;19963;-66
2021/09/25 16:30:14;;;;;;;;;;;;;;;;;;5097412;28;19924;-66
2021/09/25 16:32:41;;;;;;;;;;;;;;;;;;5096696;28;19924;-66
2021/09/25 16:35:07;;;;;;;;;;;;;;;;;;5097597;28;19924;-66
2021/09/25 16:37:34;;;;;;;;;;;;;;;;;;5101143;28;19924;-66
2021/09/25 16:40:01;;;;;;;;;;;;;;;;;;5097598;28;19924;-66
2021/09/25 16:42:28;;;;;;;;;;;;;;;;;;5097302;28;20354;-66
2021/09/25 16:44:55;;;;;;;;;;;;;;;;;;5097519;28;19967;-67